KFET/FET METAR and TAF weather

Enter ICAO airport designator
Station Type Date Time Source
KFET METAR 2022/06/25 22:35 UTC NOAA

KFET 252235Z AUTO 34016G26KT 10SM CLR 28/12 A3007 RMK AO2 T02840121


Station Type Date Time Source
KFET Decoded METAR 2022/06/25 22:35 UTC NOAA

Fremont Municipal Airport, NE, United States (KFET) 41-27N 096-31W
Jun 25, 2022 - 06:35 PM EDT / 2022.06.25 2235 UTC
Wind: from the NNW (340 degrees) at 18 MPH (16 KT) gusting to 30 MPH (26 KT):0
Visibility: 10 mile(s):0
Sky conditions: clear
Temperature: 83.1 F (28.4 C)
Dew Point: 53.8 F (12.1 C)
Relative Humidity: 36%
Pressure (altimeter): 30.07 in. Hg (1018 hPa)
ob: KFET 252235Z AUTO 34016G26KT 10SM CLR 28/12 A3007 RMK AO2 T02840121
cycle: 22

Station Type Date Time Source
KFET TAF UTC NOAA

Error!

Example: see airport list